Time;durP1;ratioP1;P1;durP2;ratioP2;P2;SDS_P1;SDS_P2;PMS_P1;PMS_P2;Temp;Humidity;BMP_temperature;BMP_pressure;BME280_temperature;BME280_humidity;BME280_pressure;Samples;Min_cycle;Max_cycle;Signal;HPM_P1;HPM_P2
2022/07/07 00:00:26;;;;;;;2.90;1.53;;;16.40;94.40;;;17.47;83.99;98719.03;4926220;29;20466;-78
2022/07/07 00:02:56;;;;;;;2.33;1.30;;;16.40;94.50;;;17.45;84.42;98707.88;4928936;29;20494;-79
2022/07/07 00:05:26;;;;;;;1.90;1.10;;;16.40;94.60;;;17.41;85.10;98707.50;4941505;28;20565;-78
2022/07/07 00:07:56;;;;;;;1.70;1.13;;;16.40;94.60;;;17.41;85.26;98710.16;4929080;29;20466;-78
2022/07/07 00:10:25;;;;;;;1.93;1.30;;;16.30;94.80;;;17.38;85.25;98707.94;4928399;29;20561;-78
2022/07/07 00:12:56;;;;;;;2.33;1.50;;;16.40;94.70;;;17.35;85.43;98705.72;4927811;29;20989;-78
2022/07/07 00:15:28;;;;;;;1.50;1.20;;;16.30;94.80;;;17.31;85.82;98703.72;4925941;29;21036;-78
2022/07/07 00:17:58;;;;;;;4.50;1.20;;;16.30;94.70;;;17.24;86.51;98706.41;4926749;29;20916;-78
2022/07/07 00:20:28;;;;;;;2.10;1.40;;;16.30;95.00;;;17.18;86.93;98685.28;4927770;29;20477;-78
2022/07/07 00:22:59;;;;;;;1.87;1.30;;;16.30;94.80;;;17.13;87.13;98691.22;4926283;29;20536;-78
2022/07/07 00:25:29;;;;;;;2.70;1.40;;;16.20;94.90;;;17.13;87.53;98693.03;4925365;29;20562;-78
2022/07/07 00:28:00;;;;;;;1.93;1.30;;;16.20;94.80;;;17.11;87.27;98690.63;4927396;29;20471;-78
2022/07/07 00:30:29;;;;;;;2.73;1.30;;;16.20;94.70;;;17.07;87.45;98700.00;4926980;29;20481;-78
2022/07/07 00:32:59;;;;;;;2.37;1.60;;;16.10;95.00;;;17.04;87.56;98695.91;4929163;29;20466;-78
2022/07/07 00:35:28;;;;;;;2.70;1.40;;;16.10;95.10;;;17.01;87.96;98696.34;4925557;29;20490;-78
2022/07/07 00:37:58;;;;;;;1.93;1.10;;;16.10;95.00;;;16.96;87.68;98698.84;4927725;29;20490;-78
2022/07/07 00:40:28;;;;;;;3.27;1.30;;;16.00;95.20;;;16.95;88.22;98699.03;4924335;29;20533;-78
2022/07/07 00:42:58;;;;;;;1.97;1.50;;;16.00;95.30;;;16.90;88.78;98698.88;4928643;29;20518;-78
2022/07/07 00:45:29;;;;;;;2.90;1.20;;;15.90;95.20;;;16.86;89.05;98698.47;4927518;29;20928;-78
2022/07/07 00:48:00;;;;;;;2.60;1.40;;;15.90;95.20;;;16.85;89.28;98694.22;4922977;29;20462;-78
2022/07/07 00:50:30;;;;;;;2.33;1.07;;;15.90;95.50;;;16.83;89.10;98683.06;4926412;29;20462;-78
2022/07/07 00:53:00;;;;;;;1.67;1.20;;;15.80;95.40;;;16.79;89.08;98676.56;4929539;29;20466;-78
2022/07/07 00:55:29;;;;;;;2.43;1.10;;;15.80;95.50;;;16.76;89.60;98682.28;4926909;29;20881;-78
2022/07/07 00:58:00;;;;;;;3.23;1.30;;;15.80;95.50;;;16.72;89.78;98667.06;4928464;29;20970;-78
2022/07/07 01:00:32;;;;;;;1.50;1.03;;;15.70;95.60;;;16.66;90.21;98663.41;4929522;29;20454;-78
2022/07/07 01:03:03;;;;;;;2.83;1.20;;;15.60;95.80;;;16.67;90.86;98657.09;4926271;29;20470;-78
2022/07/07 01:05:33;;;;;;;6.73;1.67;;;15.60;96.00;;;16.66;91.00;98659.97;4928711;29;20525;-78
2022/07/07 01:08:05;;;;;;;1.90;1.40;;;15.60;96.00;;;16.65;90.89;98661.00;4928941;29;20473;-77
2022/07/07 01:10:34;;;;;;;2.83;1.47;;;15.60;95.90;;;16.67;91.39;98653.66;4926579;29;20946;-78
2022/07/07 01:13:06;;;;;;;2.33;1.50;;;15.50;96.00;;;16.67;91.13;98661.56;4927177;29;20962;-78
2022/07/07 01:15:36;;;;;;;3.83;1.50;;;15.60;96.00;;;16.67;91.12;98665.03;4927455;29;20561;-78
2022/07/07 01:18:06;;;;;;;6.20;1.40;;;15.60;96.20;;;16.70;91.77;98674.34;4926302;29;20496;-78
2022/07/07 01:20:41;;;;;;;1.50;1.10;;;15.60;96.60;;;16.68;91.74;98657.94;4925602;29;20473;-78
2022/07/07 01:23:13;;;;;;;1.70;1.50;;;15.60;96.10;;;16.66;91.99;98657.34;4926598;29;20953;-78
2022/07/07 01:25:43;;;;;;;1.73;1.20;;;15.60;96.10;;;16.63;92.15;98661.19;4921778;29;20545;-78
2022/07/07 01:28:14;;;;;;;3.17;1.40;;;15.60;96.10;;;16.62;91.86;98664.06;4925714;29;20470;-78
2022/07/07 01:30:44;;;;;;;1.53;1.23;;;15.60;96.10;;;16.62;92.16;98664.06;4925608;29;20466;-79
2022/07/07 01:33:16;;;;;;;6.93;1.50;;;15.60;96.00;;;16.58;92.52;98658.38;4926323;29;20466;-78
2022/07/07 01:35:45;;;;;;;2.53;1.27;;;15.60;95.80;;;16.53;93.29;98658.97;4931025;29;20458;-78
2022/07/07 01:38:16;;;;;;;2.90;1.37;;;15.50;96.20;;;16.50;93.26;98651.47;4929516;29;21618;-78
2022/07/07 01:40:45;;;;;;;1.57;1.37;;;15.50;96.30;;;16.44;94.29;98651.50;4928630;29;20509;-78
2022/07/07 01:43:16;;;;;;;2.23;1.33;;;15.50;96.40;;;16.40;94.70;98650.28;4930168;29;20481;-79
2022/07/07 01:45:47;;;;;;;1.50;1.23;;;15.40;96.40;;;16.38;94.83;98642.56;4930901;29;20458;-78
2022/07/07 01:48:18;;;;;;;1.97;1.53;;;15.50;96.40;;;16.36;95.05;98643.81;4929564;29;20525;-78
2022/07/07 01:50:48;;;;;;;1.30;1.20;;;15.40;96.50;;;16.36;95.26;98643.81;4934037;29;20871;-78
2022/07/07 01:53:20;;;;;;;2.83;1.40;;;15.40;96.50;;;16.33;95.35;98645.03;4929668;29;20482;-78
2022/07/07 01:55:52;;;;;;;2.50;1.40;;;15.40;96.60;;;16.32;95.40;98639.97;4930811;29;20525;-78
2022/07/07 01:58:23;;;;;;;2.77;1.40;;;15.30;96.60;;;16.29;95.73;98638.56;4928377;29;20473;-79
2022/07/07 02:00:54;;;;;;;4.70;1.30;;;15.30;96.70;;;16.24;96.05;98635.75;4930662;29;20465;-78
2022/07/07 02:03:23;;;;;;;2.20;1.37;;;15.30;96.50;;;16.21;96.52;98633.50;4930429;29;20462;-77
2022/07/07 02:05:53;;;;;;;1.67;1.43;;;15.30;96.80;;;16.18;96.79;98630.47;4929358;29;20470;-78
2022/07/07 02:08:25;;;;;;;1.90;1.20;;;15.30;96.70;;;16.13;97.18;98632.94;4931722;29;20996;-78
2022/07/07 02:11:14;;;;;;;2.23;1.50;;;15.20;96.60;;;16.09;97.76;98628.06;4932633;29;20454;-78
2022/07/07 02:13:47;;;;;;;1.87;1.67;;;15.20;96.80;;;16.03;98.29;98618.34;4929428;29;20470;-78
2022/07/07 02:16:18;;;;;;;2.23;1.80;;;15.20;96.80;;;16.03;98.38;98618.34;4929707;29;20509;-78
2022/07/07 02:18:53;;;;;;;3.97;1.47;;;15.10;96.90;;;16.01;98.36;98609.00;4929694;29;20458;-78
2022/07/07 02:21:23;;;;;;;5.03;1.57;;;15.20;96.70;;;15.99;98.36;98606.59;4925929;29;20964;-78
2022/07/07 02:23:58;;;;;;;2.50;1.47;;;15.20;96.80;;;15.94;99.05;98601.13;4927721;29;20495;-78
2022/07/07 02:26:29;;;;;;;2.97;1.80;;;15.10;96.90;;;15.91;99.08;98598.91;4927516;29;20470;-78
2022/07/07 02:28:59;;;;;;;1.90;1.47;;;15.00;97.10;;;15.87;99.41;98610.88;4928320;29;20839;-78
2022/07/07 02:31:29;;;;;;;3.37;1.80;;;15.00;97.00;;;15.85;99.31;98610.28;4928481;29;20525;-78
2022/07/07 02:33:59;;;;;;;1.30;1.20;;;14.90;97.20;;;15.83;99.87;98607.03;4927949;29;20468;-78
2022/07/07 02:36:29;;;;;;;1.50;1.40;;;14.80;97.50;;;15.81;99.90;98616.16;4929962;29;20588;-78
2022/07/07 02:39:00;;;;;;;3.50;1.60;;;14.80;97.20;;;15.79;100.00;98619.00;4928695;29;20533;-78
2022/07/07 02:41:30;;;;;;;9.13;1.37;;;14.90;97.20;;;15.74;100.00;98620.63;4928316;29;20525;-78
2022/07/07 02:44:00;;;;;;;2.17;1.37;;;14.80;97.50;;;15.70;100.00;98624.69;4928623;29;20462;-78
2022/07/07 02:46:30;;;;;;;2.90;1.70;;;14.80;97.40;;;15.66;100.00;98628.75;4927982;29;20497;-78
2022/07/07 02:49:02;;;;;;;1.67;1.30;;;14.80;97.50;;;15.65;100.00;98622.69;4931564;29;20487;-78
2022/07/07 02:51:32;;;;;;;2.50;1.47;;;14.70;97.70;;;15.68;100.00;98618.84;4931651;29;20459;-78
2022/07/07 02:54:04;;;;;;;4.30;1.30;;;14.80;97.60;;;15.69;100.00;98612.56;4931878;29;20444;-78
2022/07/07 02:56:34;;;;;;;2.87;1.50;;;14.80;97.70;;;15.70;100.00;98619.44;4929679;29;20475;-78
2022/07/07 02:59:04;;;;;;;4.70;1.40;;;14.80;97.60;;;15.72;100.00;98620.03;4932264;29;20519;-79
2022/07/07 03:01:34;;;;;;;3.10;1.77;;;14.80;97.50;;;15.72;100.00;98620.88;4930000;29;20481;-80
2022/07/07 03:04:04;;;;;;;3.53;1.57;;;14.80;97.70;;;15.73;100.00;98613.75;4925476;29;20510;-79
2022/07/07 03:06:33;;;;;;;1.90;1.53;;;14.80;97.80;;;15.77;100.00;98612.31;4927658;29;20475;-79
2022/07/07 03:09:03;;;;;;;5.97;3.57;;;14.80;97.90;;;15.76;100.00;98608.84;4934569;29;20474;-87
2022/07/07 03:11:33;;;;;;;4.07;1.67;;;14.80;97.90;;;15.79;100.00;98610.31;4928320;29;21020;-79
2022/07/07 03:14:04;;;;;;;6.80;1.63;;;14.80;97.90;;;15.80;100.00;98606.63;4930856;29;20462;-79
2022/07/07 03:16:33;;;;;;;1.70;1.60;;;14.80;97.90;;;15.82;100.00;98612.53;4926969;29;20458;-79
2022/07/07 03:19:03;;;;;;;4.53;1.93;;;14.80;97.80;;;15.83;100.00;98604.38;4928172;29;20549;-80
2022/07/07 03:21:33;;;;;;;4.00;1.77;;;14.90;97.80;;;15.84;100.00;98613.13;4928234;29;20481;-79
2022/07/07 03:24:04;;;;;;;11.27;5.93;;;14.90;97.80;;;15.86;100.00;98605.81;4943474;28;20826;-80
2022/07/07 03:26:34;;;;;;;2.90;1.57;;;14.90;97.70;;;15.86;100.00;98603.97;4929200;29;20463;-79
2022/07/07 03:29:04;;;;;;;4.67;1.50;;;14.90;97.70;;;15.87;100.00;98613.50;4929011;29;20471;-79
2022/07/07 03:31:33;;;;;;;4.00;1.77;;;14.90;97.70;;;15.89;100.00;98608.03;4929760;29;20470;-79
2022/07/07 03:34:03;;;;;;;3.73;1.70;;;14.90;97.80;;;15.91;100.00;98613.91;4930892;29;20516;-79
2022/07/07 03:36:33;;;;;;;6.63;1.60;;;14.90;97.60;;;15.94;100.00;98611.66;4927544;29;20467;-79
2022/07/07 03:39:05;;;;;;;4.63;1.60;;;14.90;97.60;;;15.97;100.00;98613.06;4929562;29;20593;-79
2022/07/07 03:41:36;;;;;;;1.77;1.17;;;15.00;97.60;;;15.98;100.00;98604.97;4929048;29;20470;-79
2022/07/07 03:44:07;;;;;;;3.70;1.90;;;15.00;97.60;;;15.99;100.00;98605.78;4929299;29;20570;-79
2022/07/07 03:46:38;;;;;;;2.00;1.60;;;15.00;97.70;;;15.99;100.00;98595.22;4931049;29;20482;-86
2022/07/07 03:49:09;;;;;;;3.00;1.83;;;15.00;97.60;;;16.02;100.00;98592.97;4927636;29;20490;-79
2022/07/07 03:51:38;;;;;;;1.40;1.30;;;15.00;97.60;;;16.04;100.00;98590.13;4930420;29;20470;-79
2022/07/07 03:54:10;;;;;;;1.50;1.20;;;15.00;97.60;;;16.03;100.00;98589.34;4929571;29;20455;-79
2022/07/07 03:56:40;;;;;;;4.80;2.00;;;15.00;97.50;;;16.02;99.99;98584.25;4930319;29;20469;-79
2022/07/07 03:59:10;;;;;;;2.70;1.67;;;15.10;97.20;;;16.03;100.00;98585.88;4929828;29;21015;-79
2022/07/07 04:01:44;;;;;;;2.50;1.63;;;15.10;97.30;;;16.04;99.88;98587.47;4930930;29;20451;-79
2022/07/07 04:04:15;;;;;;;3.20;1.63;;;15.10;97.30;;;16.05;99.75;98574.09;4931056;29;20489;-87
2022/07/07 04:06:45;;;;;;;3.13;1.90;;;15.10;97.20;;;16.06;100.00;98575.72;4915659;29;20470;-80
2022/07/07 04:09:17;;;;;;;3.10;1.93;;;15.10;97.60;;;16.08;100.00;98575.50;4929495;29;21057;-79
2022/07/07 04:11:47;;;;;;;3.40;1.50;;;15.10;97.50;;;16.10;99.89;98576.91;4929930;29;21017;-86
2022/07/07 04:14:17;;;;;;;11.80;6.10;;;15.10;97.30;;;16.10;100.00;98573.47;4930751;29;20922;-79
2022/07/07 04:16:47;;;;;;;3.80;1.87;;;15.20;97.30;;;16.11;99.85;98577.72;4929965;29;20467;-79
2022/07/07 04:19:16;;;;;;;2.40;1.50;;;15.20;97.20;;;16.12;99.93;98581.97;4928765;29;20498;-79
2022/07/07 04:21:46;;;;;;;1.83;1.43;;;15.20;97.30;;;16.13;99.59;98580.97;4929324;29;20961;-79
2022/07/07 04:24:18;;;;;;;3.03;1.90;;;15.20;97.20;;;16.13;100.00;98567.78;4928611;29;20445;-79
2022/07/07 04:26:48;;;;;;;2.10;1.40;;;15.20;97.30;;;16.15;100.00;98560.44;4931457;29;20203;-79
2022/07/07 04:29:18;;;;;;;1.77;1.20;;;15.20;97.40;;;16.17;100.00;98566.34;4931577;29;20447;-79
2022/07/07 04:31:54;;;;;;;2.03;1.43;;;15.20;97.80;;;16.19;100.00;98559.00;4930890;29;20965;-79
2022/07/07 04:34:24;;;;;;;5.83;1.63;;;15.20;97.60;;;16.18;100.00;98565.31;4929182;29;20474;-79
2022/07/07 04:36:52;;;;;;;4.37;1.70;;;15.10;97.90;;;16.19;100.00;98566.94;4930429;29;20458;-79
2022/07/07 04:39:23;;;;;;;3.03;1.70;;;15.20;97.60;;;16.21;100.00;98566.75;4931891;29;20860;-79
2022/07/07 04:41:52;;;;;;;1.90;1.57;;;15.20;97.70;;;16.22;100.00;98555.13;4932158;29;20461;-79
2022/07/07 04:44:22;;;;;;;3.53;1.30;;;15.30;97.60;;;16.23;100.00;98560.22;4931822;29;20446;-80
2022/07/07 04:46:52;;;;;;;2.37;1.60;;;15.30;97.60;;;16.24;100.00;98559.22;4929152;29;20451;-79
2022/07/07 04:49:23;;;;;;;1.70;1.40;;;15.30;97.60;;;16.26;100.00;98565.06;4930231;29;20466;-80
2022/07/07 04:51:53;;;;;;;5.47;1.90;;;15.30;97.80;;;16.25;100.00;98555.53;4928489;29;20844;-80
2022/07/07 04:54:24;;;;;;;1.60;1.50;;;15.40;97.70;;;16.27;100.00;98557.97;4931382;29;20459;-79
2022/07/07 04:56:54;;;;;;;2.60;1.43;;;15.40;97.80;;;16.28;100.00;98557.75;4931068;29;20465;-79
2022/07/07 04:59:22;;;;;;;3.03;1.50;;;15.40;97.80;;;16.29;100.00;98548.81;4931090;29;21091;-79
2022/07/07 05:01:51;;;;;;;2.43;1.70;;;15.40;97.90;;;16.32;100.00;98551.03;4931827;29;20513;-79
2022/07/07 05:04:21;;;;;;;2.37;1.53;;;15.40;98.10;;;16.34;100.00;98551.66;4930670;29;20453;-80
2022/07/07 05:06:51;;;;;;;4.40;1.50;;;15.40;98.30;;;16.35;100.00;98553.25;4930971;29;20465;-79
2022/07/07 05:09:21;;;;;;;3.67;2.00;;;15.40;98.10;;;16.37;100.00;98555.69;4931003;29;20470;-79
2022/07/07 05:11:53;;;;;;;3.93;1.40;;;15.50;98.00;;;16.40;100.00;98547.34;4930827;29;20961;-79
2022/07/07 05:14:24;;;;;;;2.57;1.67;;;15.50;98.10;;;16.41;100.00;98546.31;4930783;29;20534;-80
2022/07/07 05:16:54;;;;;;;1.93;1.73;;;15.50;98.00;;;16.43;100.00;98544.28;4929285;29;20466;-79
2022/07/07 05:19:24;;;;;;;2.43;1.80;;;15.50;98.00;;;16.44;100.00;98540.63;4930554;29;20505;-79
2022/07/07 05:21:54;;;;;;;3.53;1.53;;;15.50;98.10;;;16.45;100.00;98542.25;4930955;29;20501;-79
2022/07/07 05:24:25;;;;;;;4.27;1.67;;;15.50;98.00;;;16.46;100.00;98538.56;4930064;29;20479;-80
2022/07/07 05:26:56;;;;;;;6.40;1.90;;;15.50;98.30;;;16.47;100.00;98533.09;4930126;29;20446;-79
2022/07/07 05:29:27;;;;;;;4.80;2.17;;;15.60;98.30;;;16.50;100.00;98545.84;4929651;29;20447;-79
2022/07/07 05:31:57;;;;;;;2.10;1.43;;;15.60;98.30;;;16.52;100.00;98535.88;4929447;29;20446;-79
2022/07/07 05:34:26;;;;;;;3.77;1.97;;;15.70;98.40;;;16.53;100.00;98529.59;4929079;29;20523;-79
2022/07/07 05:36:56;;;;;;;1.53;1.43;;;15.60;98.90;;;16.56;100.00;98539.75;4929221;29;20470;-79
2022/07/07 05:39:26;;;;;;;5.40;1.70;;;15.60;99.10;;;16.58;100.00;98529.81;4930963;29;20854;-79
2022/07/07 05:41:56;;;;;;;1.80;1.63;;;15.70;98.80;;;16.63;100.00;98525.69;4929967;29;20458;-79
2022/07/07 05:44:26;;;;;;;2.77;1.80;;;15.70;99.00;;;16.67;100.00;98529.53;4931842;29;20938;-79
2022/07/07 05:46:56;;;;;;;2.23;1.90;;;15.70;98.90;;;16.69;100.00;98530.13;4929475;29;20521;-79
2022/07/07 05:49:27;;;;;;;3.30;1.90;;;15.80;98.70;;;16.72;100.00;98535.81;4928913;29;20474;-80
2022/07/07 05:51:56;;;;;;;5.10;2.10;;;15.80;98.80;;;16.75;100.00;98538.00;4929382;29;20482;-80
2022/07/07 05:54:27;;;;;;;2.90;1.80;;;15.80;98.80;;;16.81;100.00;98537.16;4930314;29;20458;-79
2022/07/07 05:56:58;;;;;;;6.03;1.60;;;15.80;99.00;;;16.85;100.00;98530.41;4931391;29;20451;-79
2022/07/07 05:59:28;;;;;;;1.80;1.63;;;15.90;98.90;;;16.91;100.00;98526.09;4931137;29;20482;-80
2022/07/07 06:01:58;;;;;;;5.20;1.87;;;16.00;99.20;;;16.96;100.00;98532.38;4930246;29;20500;-79
2022/07/07 06:04:28;;;;;;;3.33;2.10;;;16.00;99.30;;;17.03;100.00;98532.31;4930282;29;20900;-80
2022/07/07 06:06:58;;;;;;;3.23;1.80;;;16.10;99.20;;;17.08;100.00;98529.81;4928902;29;20466;-80
2022/07/07 06:09:29;;;;;;;3.43;1.80;;;16.10;99.20;;;17.13;100.00;98529.97;4930401;29;20439;-80
2022/07/07 06:12:00;;;;;;;12.50;2.17;;;16.20;99.30;;;17.19;100.00;98530.94;4928762;29;20510;-79
2022/07/07 06:14:29;;;;;;;5.37;2.03;;;16.30;99.30;;;17.22;100.00;98523.38;4928498;29;20470;-80
2022/07/07 06:17:00;;;;;;;2.87;2.07;;;16.30;99.30;;;17.27;100.00;98531.47;4930117;29;20470;-79
2022/07/07 06:19:30;;;;;;;4.93;2.10;;;16.30;99.70;;;17.33;100.00;98530.59;4929804;29;20931;-79
2022/07/07 06:21:59;;;;;;;3.20;1.83;;;16.50;99.30;;;17.38;100.00;98533.41;4933253;29;20538;-79
2022/07/07 06:24:29;;;;;;;2.40;2.10;;;16.50;99.70;;;17.43;100.00;98530.09;4935021;29;20534;-80
2022/07/07 06:26:59;;;;;;;2.30;1.83;;;16.60;99.90;;;17.48;100.00;98532.91;4933447;29;20486;-80
2022/07/07 06:29:30;;;;;;;3.77;1.73;;;16.70;99.90;;;17.53;100.00;98539.16;4933691;29;20493;-79
2022/07/07 06:32:00;;;;;;;3.30;1.90;;;16.80;99.90;;;17.59;100.00;98529.56;4933135;29;20462;-79
2022/07/07 06:34:29;;;;;;;2.73;1.90;;;16.80;99.90;;;17.63;100.00;98527.31;4933424;29;20451;-79
2022/07/07 06:37:00;;;;;;;1.90;1.50;;;16.90;99.90;;;17.68;100.00;98522.97;4931822;29;20821;-80
2022/07/07 06:39:30;;;;;;;3.77;1.70;;;16.90;99.90;;;17.73;100.00;98519.66;4933995;29;20489;-80
2022/07/07 06:42:01;;;;;;;2.00;1.60;;;17.00;99.90;;;17.76;100.00;98527.97;4931857;29;20525;-80
2022/07/07 06:44:31;;;;;;;4.20;1.70;;;17.10;99.90;;;17.78;100.00;98539.13;4933356;29;20460;-79
2022/07/07 06:47:02;;;;;;;3.30;1.90;;;17.10;99.90;;;17.83;100.00;98541.13;4933686;29;20454;-80
2022/07/07 06:49:33;;;;;;;4.23;1.80;;;17.20;99.90;;;17.88;100.00;98539.41;4933753;29;20974;-80
2022/07/07 06:52:02;;;;;;;2.43;1.70;;;17.20;99.90;;;17.92;100.00;98542.41;4933809;29;20467;-79
2022/07/07 06:54:33;;;;;;;2.50;2.00;;;17.20;99.90;;;17.96;100.00;98546.25;4933111;29;20454;-79
2022/07/07 06:57:06;;;;;;;2.33;1.90;;;17.20;99.90;;;18.00;100.00;98536.84;4933900;29;20451;-79
2022/07/07 06:59:38;;;;;;;3.53;1.93;;;17.20;99.90;;;18.04;100.00;98543.31;4932016;29;20566;-79
2022/07/07 07:02:09;;;;;;;4.70;1.87;;;17.40;99.90;;;18.07;100.00;98542.88;4930595;29;20470;-79
2022/07/07 07:04:40;;;;;;;1.87;1.70;;;17.40;99.90;;;18.12;100.00;98545.63;4933572;29;20470;-79
2022/07/07 07:07:11;;;;;;;2.40;1.87;;;17.40;99.90;;;18.17;100.00;98542.31;4932589;29;21342;-82
2022/07/07 07:09:42;;;;;;;3.03;1.83;;;17.50;99.90;;;18.21;100.00;98546.16;4932718;29;20977;-79
2022/07/07 07:12:13;;;;;;;5.97;2.13;;;17.50;99.90;;;18.26;100.00;98541.78;4932668;29;20977;-80
2022/07/07 07:14:42;;;;;;;1.50;1.40;;;17.60;99.90;;;18.29;100.00;98551.94;4933030;29;20455;-80
2022/07/07 07:17:12;;;;;;;4.57;2.20;;;17.60;99.90;;;18.31;100.00;98554.38;4930904;29;20466;-79
2022/07/07 07:19:43;;;;;;;2.40;1.90;;;17.60;99.90;;;18.34;100.00;98554.72;4932032;29;20502;-79
2022/07/07 07:22:13;;;;;;;2.40;1.80;;;17.70;99.90;;;18.34;100.00;98554.72;4931654;29;21044;-79
2022/07/07 07:24:43;;;;;;;2.97;1.90;;;17.70;99.90;;;18.36;100.00;98550.00;4932143;29;20490;-80
2022/07/07 07:27:16;;;;;;;4.50;2.10;;;17.80;99.90;;;18.36;100.00;98552.66;4932446;29;20459;-79
2022/07/07 07:29:45;;;;;;;2.63;1.90;;;17.70;99.90;;;18.39;100.00;98554.88;4932212;29;20545;-80
2022/07/07 07:32:15;;;;;;;2.30;1.90;;;17.70;99.90;;;18.42;100.00;98567.66;4931526;29;20501;-79
2022/07/07 07:34:44;;;;;;;6.10;2.30;;;17.60;99.90;;;18.45;100.00;98563.75;4930721;29;20518;-79
2022/07/07 07:37:13;;;;;;;2.00;1.60;;;17.70;99.90;;;18.45;100.00;98561.91;4932299;29;20455;-79
2022/07/07 07:39:42;;;;;;;3.07;1.87;;;17.80;99.90;;;18.46;100.00;98555.59;4930782;29;20525;-79
2022/07/07 07:42:14;;;;;;;5.07;2.00;;;17.70;99.90;;;18.46;100.00;98558.25;4931260;29;20471;-79
2022/07/07 07:47:32;;;;;;;2.70;1.80;;;17.80;99.90;;;18.52;100.00;98556.56;4933449;29;20454;-80
2022/07/07 07:50:04;;;;;;;3.73;2.40;;;17.70;99.90;;;18.57;100.00;98551.38;4931095;29;20498;-79
2022/07/07 07:52:34;;;;;;;3.00;2.10;;;17.80;99.90;;;18.53;100.00;98555.53;4931395;29;20954;-80
2022/07/07 07:55:06;;;;;;;3.20;2.03;;;17.70;99.90;;;18.57;100.00;98551.38;4932179;29;20563;-80
2022/07/07 07:57:37;;;;;;;5.77;2.97;;;17.70;99.90;;;18.66;100.00;98554.53;4931098;29;20479;-80
2022/07/07 08:00:11;;;;;;;2.53;1.87;;;17.80;99.90;;;18.74;100.00;98559.50;4931915;29;20490;-80
2022/07/07 08:02:41;;;;;;;3.97;1.87;;;17.90;99.90;;;18.81;100.00;98560.22;4932231;29;20835;-80
2022/07/07 08:05:12;;;;;;;3.43;2.00;;;18.00;99.90;;;18.84;100.00;98554.47;4929921;29;20526;-80
2022/07/07 08:07:43;;;;;;;2.30;1.90;;;18.00;99.90;;;18.86;100.00;98555.03;4931743;29;20455;-79
2022/07/07 08:10:16;;;;;;;6.70;2.53;;;18.00;99.90;;;18.89;100.00;98557.22;4929665;29;20557;-80
2022/07/07 08:12:49;;;;;;;4.00;1.60;;;18.10;99.90;;;18.92;100.00;98559.41;4930581;29;20550;-79
2022/07/07 08:15:18;;;;;;;3.33;2.03;;;18.20;99.90;;;18.96;100.00;98558.75;4930912;29;20537;-80
2022/07/07 08:17:50;;;;;;;2.70;1.87;;;18.20;99.90;;;18.99;100.00;98557.47;4929761;29;20486;-80
2022/07/07 08:20:21;;;;;;;2.30;1.73;;;18.30;99.90;;;19.05;100.00;98552.06;4930705;29;20494;-80
2022/07/07 08:22:51;;;;;;;3.20;2.00;;;18.40;99.90;;;19.07;100.00;98554.50;4932786;29;20486;-79
2022/07/07 08:25:21;;;;;;;3.97;1.80;;;18.30;99.90;;;19.14;100.00;98543.78;4930690;29;20454;-79
2022/07/07 08:27:53;;;;;;;2.13;1.80;;;18.40;99.90;;;19.15;100.00;98546.22;4931429;29;20466;-80
2022/07/07 08:30:23;;;;;;;2.10;1.53;;;18.50;99.90;;;19.18;100.00;98540.44;4931219;29;20470;-79
2022/07/07 08:32:52;;;;;;;5.27;1.90;;;18.50;99.90;;;19.25;100.00;98543.81;4929963;29;20872;-80
2022/07/07 08:35:22;;;;;;;4.77;1.60;;;18.60;99.90;;;19.25;100.00;98551.75;4930908;29;20513;-80
2022/07/07 08:37:53;;;;;;;3.23;1.83;;;18.60;99.90;;;19.26;100.00;98549.91;4931108;29;20462;-79
2022/07/07 08:40:22;;;;;;;2.30;1.70;;;18.60;99.90;;;19.23;100.00;98553.03;4930557;29;21027;-80
2022/07/07 08:43:00;;;;;;;4.97;1.80;;;18.50;99.90;;;19.27;100.00;98546.22;4930736;29;20463;-79
2022/07/07 08:45:31;;;;;;;2.17;1.70;;;18.50;99.90;;;19.28;100.00;98546.00;4930450;29;20470;-79
2022/07/07 08:48:01;;;;;;;1.63;1.53;;;18.60;99.90;;;19.31;100.00;98542.88;4930170;29;20467;-79
2022/07/07 08:50:34;;;;;;;2.47;1.30;;;18.70;99.90;;;19.28;100.00;98553.13;4929485;29;20893;-79
2022/07/07 08:53:05;;;;;;;1.73;1.57;;;18.60;99.90;;;19.32;100.00;98554.28;4930841;29;20451;-82
2022/07/07 08:55:41;;;;;;;2.67;1.80;;;18.60;99.90;;;19.38;100.00;98556.81;4929990;29;20442;-79
2022/07/07 08:58:12;;;;;;;2.40;1.60;;;18.70;99.90;;;19.41;100.00;98550.28;4930239;29;20461;-80
2022/07/07 09:00:42;;;;;;;3.53;1.53;;;18.70;99.90;;;19.48;100.00;98554.44;4929535;29;20486;-79
2022/07/07 09:03:13;;;;;;;1.87;1.50;;;18.70;99.90;;;19.49;100.00;98558.72;4929946;29;20466;-79
2022/07/07 09:05:43;;;;;;;1.83;1.40;;;18.90;99.50;;;19.49;100.00;98568.50;4929523;29;20474;-80
2022/07/07 09:08:20;;;;;;;1.83;1.30;;;18.90;99.50;;;19.47;100.00;98562.63;4930668;29;20518;-79
2022/07/07 09:10:51;;;;;;;1.70;1.53;;;18.80;99.60;;;19.48;100.00;98551.78;4929235;29;20474;-80
2022/07/07 09:13:26;;;;;;;1.57;1.40;;;18.90;99.70;;;19.49;100.00;98560.56;4930186;29;20461;-79
2022/07/07 09:16:01;;;;;;;2.30;1.40;;;18.90;99.60;;;19.43;100.00;98580.88;4931180;29;20461;-79
2022/07/07 09:18:33;;;;;;;2.73;1.60;;;18.80;99.60;;;19.47;100.00;98576.69;4930413;29;20466;-79
2022/07/07 09:21:06;;;;;;;2.80;1.60;;;18.80;99.90;;;19.48;100.00;98572.19;4929961;29;20527;-79
2022/07/07 09:23:51;;;;;;;1.73;1.20;;;18.70;99.90;;;19.45;100.00;98568.16;4930632;29;20562;-80
2022/07/07 09:26:36;;;;;;;1.40;1.27;;;18.70;99.90;;;19.44;100.00;98584.31;4930672;29;20504;-79
2022/07/07 09:29:07;;;;;;;2.00;1.17;;;18.70;99.90;;;19.41;100.00;98577.63;4929747;29;20481;-79
2022/07/07 09:31:54;;;;;;;1.30;1.17;;;18.70;99.90;;;19.48;100.00;98567.69;4929513;29;20841;-79
2022/07/07 09:34:27;;;;;;;6.30;1.40;;;18.80;99.90;;;19.53;100.00;98569.66;4930029;29;20471;-79
2022/07/07 09:39:48;;;;;;;1.63;1.30;;;18.90;99.90;;;19.67;100.00;98572.88;4927891;29;20462;-79
2022/07/07 09:42:38;;;;;;;2.40;1.30;;;19.00;99.90;;;19.72;100.00;98588.91;4927866;29;20558;-80
2022/07/07 09:45:13;;;;;;;2.50;1.27;;;19.00;99.90;;;19.84;100.00;98582.56;4930710;29;20518;-79
2022/07/07 09:47:43;;;;;;;6.43;1.60;;;19.20;99.90;;;19.91;100.00;98587.75;4929407;29;20465;-79
2022/07/07 09:50:17;;;;;;;1.30;1.10;;;19.20;99.70;;;20.03;100.00;98592.00;4930391;29;20463;-80
2022/07/07 09:52:47;;;;;;;6.63;1.30;;;19.30;99.40;;;20.09;100.00;98584.94;4929617;29;20461;-80
2022/07/07 09:55:18;;;;;;;1.30;1.07;;;19.30;99.10;;;20.16;100.00;98590.94;4931716;29;20474;-80
2022/07/07 09:57:48;;;;;;;1.20;1.10;;;19.40;99.20;;;20.22;100.00;98594.50;4931462;29;20970;-79
2022/07/07 10:00:19;;;;;;;2.40;1.40;;;19.60;98.70;;;20.23;100.00;98594.28;4933186;29;21012;-80
2022/07/07 10:02:52;;;;;;;1.20;1.10;;;19.60;98.90;;;20.16;100.00;98617.50;4934159;29;20462;-79
2022/07/07 10:05:23;;;;;;;2.50;1.53;;;19.50;98.70;;;20.12;100.00;98621.66;4934286;29;20811;-80
2022/07/07 10:07:57;;;;;;;1.47;1.30;;;19.50;99.60;;;20.10;100.00;98637.81;4935373;29;21036;-80
2022/07/07 10:10:28;;;;;;;1.43;1.33;;;19.50;99.90;;;20.07;100.00;98640.13;4933455;29;20481;-80
2022/07/07 10:13:02;;;;;;;1.77;1.30;;;19.40;99.90;;;20.07;100.00;98624.19;4934402;29;20874;-80
2022/07/07 10:15:34;;;;;;;2.10;1.30;;;19.40;99.90;;;20.09;100.00;98628.25;4932521;29;20858;-80
2022/07/07 10:18:05;;;;;;;2.20;1.50;;;19.40;99.90;;;19.98;100.00;98641.53;4932294;29;20462;-79
2022/07/07 10:20:36;;;;;;;1.70;1.10;;;19.40;99.90;;;19.95;100.00;98636.69;4933798;29;20497;-79
2022/07/07 10:23:08;;;;;;;4.60;1.30;;;19.40;99.90;;;19.95;100.00;98652.63;4930921;29;20606;-79
2022/07/07 10:25:38;;;;;;;2.23;1.20;;;19.30;99.90;;;19.88;100.00;98655.41;4933226;29;20494;-79
2022/07/07 10:28:09;;;;;;;1.53;1.30;;;19.20;99.90;;;19.83;100.00;98649.97;4932829;29;20476;-79
2022/07/07 10:30:41;;;;;;;1.50;1.10;;;19.00;99.90;;;19.78;100.00;98664.97;4934603;29;20870;-79
2022/07/07 10:33:11;;;;;;;1.57;0.97;;;19.00;99.90;;;19.56;100.00;98665.53;4932971;29;20847;-80
2022/07/07 10:35:45;;;;;;;1.10;1.00;;;18.90;99.90;;;19.55;100.00;98653.31;4932096;29;20468;-79